createdAt,value
2022-08-02T00:00:25.456Z,0.00
2022-08-02T00:01:24.491Z,0.00
2022-08-02T00:02:24.422Z,0.00
2022-08-02T00:03:24.812Z,0.00
2022-08-02T00:04:24.432Z,0.00
2022-08-02T00:05:24.412Z,0.00
2022-08-02T00:06:24.366Z,0.00
2022-08-02T00:07:24.355Z,0.00
2022-08-02T00:08:24.390Z,0.00
2022-08-02T00:09:24.346Z,0.00
2022-08-02T00:10:25.078Z,0.00
2022-08-02T00:11:24.327Z,0.00
2022-08-02T00:12:24.320Z,0.00
2022-08-02T00:13:24.294Z,0.00
2022-08-02T00:14:24.276Z,0.00
2022-08-02T00:15:24.303Z,0.00
2022-08-02T00:16:38.314Z,0.00
2022-08-02T00:17:25.248Z,0.00
2022-08-02T00:18:24.240Z,0.00
2022-08-02T00:19:24.227Z,0.00
2022-08-02T00:20:24.219Z,0.00
2022-08-02T00:21:24.228Z,0.00
2022-08-02T00:22:24.250Z,0.00
2022-08-02T00:23:24.183Z,0.00
2022-08-02T00:24:29.163Z,0.00
2022-08-02T00:25:24.170Z,0.00
2022-08-02T00:26:24.174Z,0.00
2022-08-02T00:27:24.171Z,0.00
2022-08-02T00:28:27.311Z,0.00
2022-08-02T00:29:24.118Z,0.00
2022-08-02T00:30:24.132Z,0.00
2022-08-02T00:31:24.149Z,0.00
2022-08-02T00:32:24.083Z,0.00
2022-08-02T00:34:05.593Z,0.00
2022-08-02T00:34:29.961Z,0.00
2022-08-02T00:35:25.049Z,0.00
2022-08-02T00:36:24.078Z,0.00
2022-08-02T00:37:24.031Z,0.00
2022-08-02T00:38:24.022Z,0.00
2022-08-02T00:39:34.677Z,0.00
2022-08-02T00:40:25.046Z,0.00
2022-08-02T00:41:24.006Z,0.00
2022-08-02T00:42:23.977Z,0.00
2022-08-02T00:43:23.961Z,0.00
2022-08-02T00:44:23.965Z,0.00
2022-08-02T00:46:02.103Z,0.00
2022-08-02T00:46:24.952Z,0.00
2022-08-02T00:47:23.920Z,0.00
2022-08-02T00:48:23.970Z,0.00
2022-08-02T00:49:23.941Z,0.00
2022-08-02T00:50:23.939Z,0.00
2022-08-02T00:51:23.868Z,0.00
2022-08-02T00:52:23.897Z,0.00
2022-08-02T00:53:23.854Z,0.00
2022-08-02T00:54:23.871Z,0.00
2022-08-02T00:55:30.901Z,0.00
2022-08-02T00:56:24.827Z,0.00
2022-08-02T00:57:23.813Z,0.00
2022-08-02T00:58:23.818Z,0.00
2022-08-02T00:59:23.820Z,0.00
2022-08-02T01:00:23.789Z,0.00
2022-08-02T01:01:24.832Z,0.00
2022-08-02T01:02:23.780Z,0.00
2022-08-02T01:03:23.748Z,0.00
2022-08-02T01:04:30.016Z,0.00
2022-08-02T01:05:24.741Z,0.00
2022-08-02T01:06:23.716Z,0.00
2022-08-02T01:07:23.692Z,0.00
2022-08-02T01:08:29.506Z,0.00
2022-08-02T01:09:24.682Z,0.00
2022-08-02T01:10:23.711Z,0.00
2022-08-02T01:11:23.665Z,0.00
2022-08-02T01:12:23.647Z,0.00
2022-08-02T01:13:23.893Z,0.00
2022-08-02T01:14:23.624Z,0.00
2022-08-02T01:15:23.606Z,0.00
2022-08-02T01:16:24.625Z,0.00
2022-08-02T01:17:23.594Z,0.00
2022-08-02T01:18:23.573Z,0.00
2022-08-02T01:19:23.594Z,0.00
2022-08-02T01:20:23.560Z,0.00
2022-08-02T01:21:23.545Z,0.00
2022-08-02T01:22:34.664Z,0.00
2022-08-02T01:23:24.548Z,0.00
2022-08-02T01:24:23.525Z,0.00
2022-08-02T01:25:23.506Z,0.00
2022-08-02T01:26:23.495Z,0.00
2022-08-02T01:27:23.494Z,0.00
2022-08-02T01:28:23.494Z,0.00
2022-08-02T01:29:23.469Z,0.00
2022-08-02T01:30:23.447Z,0.00
2022-08-02T01:31:23.482Z,0.00
2022-08-02T01:32:23.432Z,0.00
2022-08-02T01:33:23.409Z,0.00
2022-08-02T01:34:23.421Z,0.00
2022-08-02T01:35:24.350Z,0.00
2022-08-02T01:36:23.381Z,0.00
2022-08-02T01:37:23.360Z,0.00
2022-08-02T01:38:23.370Z,0.00
2022-08-02T01:39:26.888Z,0.00
2022-08-02T01:40:24.343Z,0.00
2022-08-02T01:41:23.322Z,0.00
2022-08-02T01:42:23.315Z,0.00
2022-08-02T01:43:23.323Z,0.00
2022-08-02T01:44:27.527Z,0.00
2022-08-02T01:45:23.315Z,0.00
2022-08-02T01:46:23.274Z,0.00
2022-08-02T01:47:23.287Z,0.00
2022-08-02T01:48:23.253Z,0.00
2022-08-02T01:49:23.306Z,0.00
2022-08-02T01:50:23.228Z,0.00
2022-08-02T01:51:23.214Z,0.00
2022-08-02T01:52:23.198Z,0.00
2022-08-02T01:53:23.355Z,0.00
2022-08-02T01:54:23.187Z,0.00
2022-08-02T01:55:23.195Z,0.00
2022-08-02T01:56:24.154Z,0.00
2022-08-02T01:57:23.148Z,0.00
2022-08-02T01:58:23.127Z,0.00
2022-08-02T01:59:23.116Z,0.00
2022-08-02T02:00:23.199Z,0.00
2022-08-02T02:01:23.200Z,0.00
2022-08-02T02:02:23.086Z,0.00
2022-08-02T02:03:23.078Z,0.00
2022-08-02T02:04:23.067Z,0.00
2022-08-02T02:05:23.061Z,0.00
2022-08-02T02:06:23.053Z,0.00
2022-08-02T02:07:23.110Z,0.00
2022-08-02T02:08:27.051Z,0.00
2022-08-02T02:09:23.025Z,0.00
2022-08-02T02:10:23.005Z,0.00
2022-08-02T02:12:11.470Z,0.00
2022-08-02T02:12:24.003Z,0.00
2022-08-02T02:13:33.203Z,0.00
2022-08-02T02:14:23.970Z,0.00
2022-08-02T02:15:22.940Z,0.00
2022-08-02T02:16:22.950Z,0.00
2022-08-02T02:18:10.879Z,0.00
2022-08-02T02:18:23.930Z,0.00
2022-08-02T02:19:22.962Z,0.00
2022-08-02T02:20:22.902Z,0.00
2022-08-02T02:21:22.931Z,0.00
2022-08-02T02:22:22.874Z,0.00
2022-08-02T02:23:25.845Z,0.00
2022-08-02T02:24:22.854Z,0.00
2022-08-02T02:25:27.550Z,0.00
2022-08-02T02:26:31.532Z,0.00
2022-08-02T02:27:23.804Z,0.00
2022-08-02T02:28:22.807Z,0.00
2022-08-02T02:29:22.795Z,0.00
2022-08-02T02:30:22.790Z,0.00
2022-08-02T02:31:22.789Z,0.00
2022-08-02T02:32:22.785Z,0.00
2022-08-02T02:33:26.426Z,0.00
2022-08-02T02:34:23.761Z,0.00
2022-08-02T02:35:22.727Z,0.00
2022-08-02T02:36:22.748Z,0.00
2022-08-02T02:37:23.673Z,0.00
2022-08-02T02:38:22.693Z,0.00
2022-08-02T02:39:22.679Z,0.00
2022-08-02T02:40:22.668Z,0.00
2022-08-02T02:41:22.658Z,0.00
2022-08-02T02:42:22.670Z,0.00
2022-08-02T02:43:22.651Z,0.00
2022-08-02T02:44:22.638Z,0.00
2022-08-02T02:45:22.642Z,0.00
2022-08-02T02:46:22.601Z,0.00
2022-08-02T02:47:22.588Z,0.00
2022-08-02T02:48:23.571Z,0.00
2022-08-02T02:49:22.603Z,0.00
2022-08-02T02:50:22.591Z,0.00
2022-08-02T02:51:22.549Z,0.00
2022-08-02T02:52:22.547Z,0.00
2022-08-02T02:53:22.527Z,0.00
2022-08-02T02:54:30.938Z,0.00
2022-08-02T02:55:23.524Z,0.00
2022-08-02T02:56:22.495Z,0.00
2022-08-02T02:57:22.493Z,0.00
2022-08-02T02:58:22.484Z,0.00
2022-08-02T02:59:23.483Z,0.00
2022-08-02T03:00:22.456Z,0.00
2022-08-02T03:01:55.401Z,0.00
2022-08-02T03:02:23.426Z,0.00
2022-08-02T03:03:22.445Z,0.00
2022-08-02T03:04:22.407Z,0.00
2022-08-02T03:05:22.446Z,0.00
2022-08-02T03:06:22.402Z,0.00
2022-08-02T03:07:22.367Z,0.00
2022-08-02T03:08:22.356Z,0.00
2022-08-02T03:09:22.362Z,0.00
2022-08-02T03:10:22.379Z,0.00
2022-08-02T03:11:22.337Z,0.00
2022-08-02T03:12:24.055Z,0.00
2022-08-02T03:13:22.363Z,0.00
2022-08-02T03:14:22.328Z,0.00
2022-08-02T03:15:22.297Z,0.00
2022-08-02T03:16:22.295Z,0.00
2022-08-02T03:17:22.266Z,0.00
2022-08-02T03:18:22.251Z,0.00
2022-08-02T03:19:22.259Z,0.00
2022-08-02T03:20:22.308Z,0.00
2022-08-02T03:21:22.288Z,0.00
2022-08-02T03:22:22.198Z,0.00
2022-08-02T03:23:22.227Z,0.00
2022-08-02T03:24:27.680Z,0.00
2022-08-02T03:25:23.193Z,0.00
2022-08-02T03:26:22.155Z,0.00
2022-08-02T03:27:22.143Z,0.00
2022-08-02T03:28:22.133Z,0.00
2022-08-02T03:29:22.273Z,0.00
2022-08-02T03:30:22.122Z,0.00
2022-08-02T03:31:22.125Z,0.00
2022-08-02T03:32:22.096Z,4.00
2022-08-02T03:33:22.093Z,4.00
2022-08-02T03:34:22.081Z,0.00
2022-08-02T03:35:24.180Z,4.00
2022-08-02T03:36:22.043Z,4.00
2022-08-02T03:37:22.070Z,4.00
2022-08-02T03:38:22.026Z,4.00
2022-08-02T03:39:22.007Z,4.00
2022-08-02T03:40:22.000Z,4.00
2022-08-02T03:41:22.985Z,8.00
2022-08-02T03:42:22.013Z,8.00
2022-08-02T03:43:21.965Z,12.00
2022-08-02T03:44:21.976Z,8.00
2022-08-02T03:45:21.954Z,12.00
2022-08-02T03:46:21.978Z,12.00
2022-08-02T03:47:21.930Z,12.00
2022-08-02T03:48:34.896Z,12.00
2022-08-02T03:49:22.962Z,16.00
2022-08-02T03:50:21.885Z,20.00
2022-08-02T03:51:21.878Z,20.00
2022-08-02T03:52:21.865Z,24.00
2022-08-02T03:53:21.886Z,24.00
2022-08-02T03:54:21.841Z,32.00
2022-08-02T03:55:21.865Z,36.00
2022-08-02T03:56:23.545Z,40.00
2022-08-02T03:57:21.833Z,44.00
2022-08-02T03:58:21.799Z,48.00
2022-08-02T03:59:21.813Z,52.00
2022-08-02T04:00:21.812Z,52.00
2022-08-02T04:01:21.789Z,56.00
2022-08-02T04:02:21.815Z,60.00
2022-08-02T04:03:21.742Z,64.00
2022-08-02T04:04:21.728Z,68.00
2022-08-02T04:05:21.777Z,72.00
2022-08-02T04:06:27.153Z,72.00
2022-08-02T04:08:34.574Z,76.00
2022-08-02T04:08:35.856Z,80.00
2022-08-02T04:09:23.681Z,84.00
2022-08-02T04:10:21.690Z,88.00
2022-08-02T04:11:21.653Z,92.00
2022-08-02T04:12:21.646Z,100.00
2022-08-02T04:13:21.637Z,108.00
2022-08-02T04:14:21.678Z,112.00
2022-08-02T04:15:21.604Z,120.00
2022-08-02T04:16:21.606Z,124.00
2022-08-02T04:17:21.582Z,124.00
2022-08-02T04:18:21.568Z,132.00
2022-08-02T04:19:21.602Z,140.00
2022-08-02T04:20:21.582Z,148.00
2022-08-02T04:21:21.559Z,152.00
2022-08-02T04:22:21.549Z,160.00
2022-08-02T04:23:21.540Z,172.00
2022-08-02T04:24:24.527Z,180.00
2022-08-02T04:25:21.513Z,192.00
2022-08-02T04:26:26.921Z,204.00
2022-08-02T04:28:15.692Z,208.00
2022-08-02T04:28:27.629Z,212.00
2022-08-02T04:29:22.519Z,216.00
2022-08-02T04:30:21.455Z,228.00
2022-08-02T04:31:22.420Z,232.00
2022-08-02T04:32:21.468Z,244.00
2022-08-02T04:33:21.434Z,248.00
2022-08-02T04:34:21.413Z,256.00
2022-08-02T04:35:21.394Z,268.00
2022-08-02T04:36:30.692Z,276.00
2022-08-02T04:37:22.394Z,276.00
2022-08-02T04:38:21.349Z,284.00
2022-08-02T04:39:21.386Z,288.00
2022-08-02T04:40:21.333Z,292.00
2022-08-02T04:41:21.324Z,300.00
2022-08-02T04:42:21.330Z,312.00
2022-08-02T04:43:21.296Z,320.00
2022-08-02T04:44:22.227Z,328.00
2022-08-02T04:45:21.287Z,328.00
2022-08-02T04:46:21.275Z,324.00
2022-08-02T04:47:54.039Z,320.00
2022-08-02T04:48:22.237Z,316.00
2022-08-02T04:49:21.328Z,316.00
2022-08-02T04:50:21.226Z,320.00
2022-08-02T04:51:21.219Z,320.00
2022-08-02T04:52:22.194Z,328.00
2022-08-02T04:53:21.189Z,340.00
2022-08-02T04:54:21.197Z,356.00
2022-08-02T04:55:21.190Z,368.00
2022-08-02T04:56:21.147Z,376.00
2022-08-02T04:57:21.140Z,396.00
2022-08-02T04:58:39.937Z,424.00
2022-08-02T04:59:22.143Z,444.00
2022-08-02T05:00:21.135Z,452.00
2022-08-02T05:01:21.116Z,468.00
2022-08-02T05:02:21.075Z,480.00
2022-08-02T05:03:21.069Z,496.00
2022-08-02T05:04:21.081Z,520.00
2022-08-02T05:05:21.081Z,552.00
2022-08-02T05:06:21.055Z,588.00
2022-08-02T05:07:21.060Z,628.00
2022-08-02T05:08:21.049Z,656.00
2022-08-02T05:09:21.002Z,668.00
2022-08-02T05:10:21.004Z,652.00
2022-08-02T05:11:20.985Z,624.00
2022-08-02T05:12:20.989Z,592.00
2022-08-02T05:13:20.958Z,576.00
2022-08-02T05:14:20.964Z,564.00
2022-08-02T05:15:20.943Z,548.00
2022-08-02T05:16:20.926Z,536.00
2022-08-02T05:17:21.924Z,536.00
2022-08-02T05:18:20.930Z,544.00
2022-08-02T05:19:20.946Z,552.00
2022-08-02T05:20:20.888Z,576.00
2022-08-02T05:21:20.905Z,616.00
2022-08-02T05:22:20.871Z,680.00
2022-08-02T05:23:20.849Z,772.00
2022-08-02T05:24:20.848Z,884.00
2022-08-02T05:25:20.879Z,1000.00
2022-08-02T05:26:20.849Z,1048.00
2022-08-02T05:27:21.482Z,1028.00
2022-08-02T05:28:20.796Z,944.00
2022-08-02T05:29:20.790Z,864.00
2022-08-02T05:30:20.799Z,784.00
2022-08-02T05:31:20.769Z,728.00
2022-08-02T05:32:20.758Z,692.00
2022-08-02T05:33:20.751Z,676.00
2022-08-02T05:34:20.802Z,660.00
2022-08-02T05:35:20.719Z,644.00
2022-08-02T05:36:21.599Z,640.00
2022-08-02T05:37:20.702Z,636.00
2022-08-02T05:38:24.487Z,648.00
2022-08-02T05:39:21.714Z,660.00
2022-08-02T05:40:25.377Z,672.00
2022-08-02T05:41:21.666Z,692.00
2022-08-02T05:42:20.645Z,712.00
2022-08-02T05:43:20.993Z,724.00
2022-08-02T05:44:20.623Z,724.00
2022-08-02T05:45:20.675Z,724.00
2022-08-02T05:46:20.598Z,724.00
2022-08-02T05:47:20.615Z,732.00
2022-08-02T05:48:20.596Z,732.00
2022-08-02T05:49:20.620Z,728.00
2022-08-02T05:50:20.577Z,716.00
2022-08-02T05:51:20.584Z,708.00
2022-08-02T05:52:20.525Z,700.00
2022-08-02T05:53:20.525Z,700.00
2022-08-02T05:54:20.496Z,712.00
2022-08-02T05:55:20.504Z,720.00
2022-08-02T05:56:20.507Z,728.00
2022-08-02T05:57:20.487Z,728.00
2022-08-02T05:58:20.470Z,732.00
2022-08-02T05:59:20.527Z,736.00
2022-08-02T06:00:20.440Z,740.00
2022-08-02T06:01:20.503Z,748.00
2022-08-02T06:02:20.719Z,756.00
2022-08-02T06:03:20.408Z,760.00
2022-08-02T06:04:20.401Z,764.00
2022-08-02T06:05:20.402Z,768.00
2022-08-02T06:06:20.393Z,764.00
2022-08-02T06:07:20.421Z,756.00
2022-08-02T06:08:20.372Z,756.00
2022-08-02T06:09:26.977Z,772.00
2022-08-02T06:10:21.334Z,796.00
2022-08-02T06:11:20.355Z,792.00
2022-08-02T06:12:20.313Z,776.00
2022-08-02T06:13:20.321Z,760.00
2022-08-02T06:14:20.296Z,772.00
2022-08-02T06:15:20.273Z,756.00
2022-08-02T06:16:32.345Z,764.00
2022-08-02T06:17:21.285Z,764.00
2022-08-02T06:18:28.027Z,768.00
2022-08-02T06:19:21.244Z,776.00
2022-08-02T06:20:20.214Z,784.00
2022-08-02T06:22:32.820Z,796.00
2022-08-02T06:22:34.022Z,792.00
2022-08-02T06:23:23.639Z,800.00
2022-08-02T06:24:20.195Z,816.00
2022-08-02T06:25:49.695Z,824.00
2022-08-02T06:26:21.166Z,820.00
2022-08-02T06:27:20.243Z,824.00
2022-08-02T06:28:20.142Z,824.00
2022-08-02T06:29:20.121Z,836.00
2022-08-02T06:30:20.111Z,860.00
2022-08-02T06:31:20.099Z,888.00
2022-08-02T06:32:20.078Z,900.00
2022-08-02T06:33:20.100Z,916.00
2022-08-02T06:34:20.066Z,928.00
2022-08-02T06:35:20.058Z,948.00
2022-08-02T06:36:20.064Z,956.00
2022-08-02T06:37:20.030Z,952.00
2022-08-02T06:38:20.083Z,952.00
2022-08-02T06:39:20.015Z,948.00
2022-08-02T06:40:20.013Z,948.00
2022-08-02T06:41:19.980Z,956.00
2022-08-02T06:42:27.038Z,964.00
2022-08-02T06:43:20.992Z,920.00
2022-08-02T06:44:46.000Z,960.00
2022-08-02T06:45:20.947Z,1044.00
2022-08-02T06:47:09.129Z,1036.00
2022-08-02T06:47:20.916Z,1028.00
2022-08-02T06:48:19.908Z,1040.00
2022-08-02T06:49:19.965Z,1040.00
2022-08-02T06:50:19.904Z,1032.00
2022-08-02T06:51:19.867Z,1060.00
2022-08-02T06:52:22.302Z,1028.00
2022-08-02T06:53:20.859Z,960.00
2022-08-02T06:54:40.839Z,912.00
2022-08-02T06:55:19.865Z,892.00
2022-08-02T06:56:19.815Z,908.00
2022-08-02T06:57:19.806Z,924.00
2022-08-02T06:58:19.836Z,932.00
2022-08-02T06:59:19.870Z,924.00
2022-08-02T07:00:19.786Z,904.00
2022-08-02T07:01:19.977Z,884.00
2022-08-02T07:02:20.744Z,928.00
2022-08-02T07:03:19.762Z,952.00
2022-08-02T07:04:20.347Z,948.00
2022-08-02T07:05:19.709Z,944.00
2022-08-02T07:06:19.708Z,964.00
2022-08-02T07:07:19.740Z,960.00
2022-08-02T07:08:19.736Z,928.00
2022-08-02T07:09:21.354Z,912.00
2022-08-02T07:10:19.681Z,912.00
2022-08-02T07:11:19.661Z,908.00
2022-08-02T07:12:19.644Z,900.00
2022-08-02T07:13:19.643Z,908.00
2022-08-02T07:14:19.643Z,920.00
2022-08-02T07:15:19.645Z,924.00
2022-08-02T07:16:19.603Z,944.00
2022-08-02T07:17:19.596Z,944.00
2022-08-02T07:18:19.601Z,976.00
2022-08-02T07:19:19.573Z,1008.00
2022-08-02T07:20:19.582Z,1036.00
2022-08-02T07:21:19.611Z,1048.00
2022-08-02T07:22:20.539Z,1044.00
2022-08-02T07:23:19.545Z,1044.00
2022-08-02T07:24:19.516Z,1072.00
2022-08-02T07:25:19.533Z,1088.00
2022-08-02T07:26:19.487Z,1076.00
2022-08-02T07:27:19.486Z,1076.00
2022-08-02T07:28:24.361Z,1080.00
2022-08-02T07:29:20.485Z,1076.00
2022-08-02T07:30:19.490Z,1072.00
2022-08-02T07:31:19.425Z,1068.00
2022-08-02T07:32:19.441Z,1072.00
2022-08-02T07:33:38.458Z,1068.00
2022-08-02T07:34:20.398Z,1052.00
2022-08-02T07:35:19.948Z,1060.00
2022-08-02T07:36:22.815Z,1040.00
2022-08-02T07:37:35.711Z,1008.00
2022-08-02T07:38:20.378Z,1004.00
2022-08-02T07:39:19.345Z,992.00
2022-08-02T07:40:19.960Z,988.00
2022-08-02T07:41:19.348Z,960.00
2022-08-02T07:42:19.320Z,944.00
2022-08-02T07:43:19.310Z,972.00
2022-08-02T07:44:19.323Z,968.00
2022-08-02T07:45:19.321Z,952.00
2022-08-02T07:46:19.285Z,944.00
2022-08-02T07:47:19.254Z,944.00
2022-08-02T07:48:19.337Z,944.00
2022-08-02T07:49:19.266Z,936.00
2022-08-02T07:50:19.233Z,924.00
2022-08-02T07:51:19.225Z,880.00
2022-08-02T07:52:19.282Z,936.00
2022-08-02T07:53:19.231Z,936.00
2022-08-02T07:54:19.187Z,932.00
2022-08-02T07:55:19.167Z,932.00
2022-08-02T07:56:19.195Z,944.00
2022-08-02T07:57:19.146Z,948.00
2022-08-02T07:58:19.137Z,960.00
2022-08-02T07:59:19.118Z,964.00
2022-08-02T08:00:19.118Z,960.00
2022-08-02T08:01:19.268Z,972.00
2022-08-02T08:02:19.137Z,976.00
2022-08-02T08:03:19.102Z,992.00
2022-08-02T08:04:19.079Z,1000.00
2022-08-02T08:05:19.060Z,1020.00
2022-08-02T08:06:19.081Z,1040.00
2022-08-02T08:07:20.060Z,1024.00
2022-08-02T08:08:19.085Z,1036.00
2022-08-02T08:09:19.021Z,1076.00
2022-08-02T08:10:19.019Z,1112.00
2022-08-02T08:11:18.997Z,1132.00
2022-08-02T08:12:19.247Z,1156.00
2022-08-02T08:13:18.973Z,1184.00
2022-08-02T08:14:19.001Z,1216.00
2022-08-02T08:15:18.957Z,1268.00
2022-08-02T08:16:18.944Z,1316.00
2022-08-02T08:17:18.976Z,1352.00
2022-08-02T08:18:18.982Z,1412.00
2022-08-02T08:19:18.934Z,1500.00
2022-08-02T08:20:18.931Z,1600.00
2022-08-02T08:21:18.887Z,1628.00
2022-08-02T08:22:18.878Z,1648.00
2022-08-02T08:23:18.868Z,1628.00
2022-08-02T08:24:18.870Z,1608.00
2022-08-02T08:25:18.881Z,1552.00
2022-08-02T08:26:18.839Z,1524.00
2022-08-02T08:27:18.815Z,1472.00
2022-08-02T08:28:18.850Z,1464.00
2022-08-02T08:29:18.997Z,1500.00
2022-08-02T08:30:18.805Z,1456.00
2022-08-02T08:31:18.812Z,1368.00
2022-08-02T08:32:19.145Z,1324.00
2022-08-02T08:33:18.781Z,1236.00
2022-08-02T08:34:18.774Z,1224.00
2022-08-02T08:35:18.750Z,1220.00
2022-08-02T08:36:18.770Z,1212.00
2022-08-02T08:37:18.918Z,1264.00
2022-08-02T08:38:18.733Z,1388.00
2022-08-02T08:39:18.690Z,1448.00
2022-08-02T08:40:19.363Z,1592.00
2022-08-02T08:41:18.682Z,1732.00
2022-08-02T08:42:19.355Z,1788.00
2022-08-02T08:43:18.643Z,1676.00
2022-08-02T08:44:18.644Z,1648.00
2022-08-02T08:45:18.654Z,1588.00
2022-08-02T08:46:18.640Z,1504.00
2022-08-02T08:47:18.644Z,1404.00
2022-08-02T08:48:25.758Z,1344.00
2022-08-02T08:49:19.652Z,1352.00
2022-08-02T08:50:24.089Z,1376.00
2022-08-02T08:51:19.577Z,1384.00
2022-08-02T08:52:18.574Z,1352.00
2022-08-02T08:53:18.570Z,1388.00
2022-08-02T08:54:18.606Z,1368.00
2022-08-02T08:55:18.522Z,1312.00
2022-08-02T08:56:18.518Z,1276.00
2022-08-02T08:57:18.486Z,1312.00
2022-08-02T08:58:18.495Z,1324.00
2022-08-02T08:59:18.509Z,1344.00
2022-08-02T09:00:18.542Z,1332.00
2022-08-02T09:01:18.513Z,1324.00
2022-08-02T09:02:21.405Z,1372.00
2022-08-02T09:03:19.444Z,1360.00
2022-08-02T09:04:18.461Z,1396.00
2022-08-02T09:05:18.414Z,1416.00
2022-08-02T09:06:18.393Z,1456.00
2022-08-02T09:07:18.396Z,1516.00
2022-08-02T09:08:18.385Z,1512.00
2022-08-02T09:09:18.371Z,1504.00
2022-08-02T09:10:18.478Z,1520.00
2022-08-02T09:11:18.361Z,1524.00
2022-08-02T09:12:18.391Z,1508.00
2022-08-02T09:13:38.390Z,1500.00
2022-08-02T09:14:19.420Z,1452.00
2022-08-02T09:15:18.326Z,1436.00
2022-08-02T09:16:18.287Z,1460.00
2022-08-02T09:17:18.293Z,1544.00
2022-08-02T09:18:18.266Z,1724.00
2022-08-02T09:19:18.256Z,1952.00
2022-08-02T09:20:18.292Z,1784.00
2022-08-02T09:21:18.230Z,1988.00
2022-08-02T09:22:18.237Z,2040.00
2022-08-02T09:23:18.230Z,1812.00
2022-08-02T09:24:18.218Z,1748.00
2022-08-02T09:25:18.204Z,1644.00
2022-08-02T09:26:18.204Z,1600.00
2022-08-02T09:27:18.198Z,1356.00
2022-08-02T09:28:18.162Z,1596.00
2022-08-02T09:29:18.160Z,1608.00
2022-08-02T09:30:18.147Z,1620.00
2022-08-02T09:31:18.145Z,1660.00
2022-08-02T09:32:18.122Z,1708.00
2022-08-02T09:33:18.161Z,1796.00
2022-08-02T09:34:19.705Z,1876.00
2022-08-02T09:35:18.078Z,1916.00
2022-08-02T09:36:18.082Z,1832.00
2022-08-02T09:37:18.089Z,1804.00
2022-08-02T09:38:18.066Z,1812.00
2022-08-02T09:39:18.074Z,1704.00
2022-08-02T09:40:18.047Z,1544.00
2022-08-02T09:41:18.263Z,1592.00
2022-08-02T09:42:18.006Z,1764.00
2022-08-02T09:43:17.998Z,1796.00
2022-08-02T09:44:17.994Z,1780.00
2022-08-02T09:45:18.017Z,1728.00
2022-08-02T09:46:17.969Z,1912.00
2022-08-02T09:47:18.959Z,2036.00
2022-08-02T09:48:17.949Z,2068.00
2022-08-02T09:49:18.081Z,2368.00
2022-08-02T09:50:18.005Z,2608.00
2022-08-02T09:51:17.899Z,2892.00
2022-08-02T09:52:17.923Z,2884.00
2022-08-02T09:53:17.881Z,2880.00
2022-08-02T09:54:17.872Z,3348.00
2022-08-02T09:55:17.891Z,3480.00
2022-08-02T09:56:30.190Z,3704.00
2022-08-02T09:57:18.846Z,3980.00
2022-08-02T09:58:17.839Z,4208.00
2022-08-02T09:59:18.462Z,4464.00
2022-08-02T10:00:27.034Z,4524.00
2022-08-02T10:01:18.810Z,4388.00
2022-08-02T10:02:22.845Z,4228.00
2022-08-02T10:03:21.951Z,3992.00
2022-08-02T10:04:21.741Z,3516.00
2022-08-02T10:05:17.754Z,3160.00
2022-08-02T10:06:17.772Z,2800.00
2022-08-02T10:07:17.746Z,2472.00
2022-08-02T10:08:17.742Z,2404.00
2022-08-02T10:09:17.729Z,2592.00
2022-08-02T10:10:17.741Z,3156.00
2022-08-02T10:11:17.721Z,3460.00
2022-08-02T10:12:17.680Z,3972.00
2022-08-02T10:13:20.204Z,3452.00
2022-08-02T10:14:17.648Z,3592.00
2022-08-02T10:15:17.638Z,4436.00
2022-08-02T10:16:17.668Z,4568.00
2022-08-02T10:17:17.682Z,3784.00
2022-08-02T10:18:37.086Z,2500.00
2022-08-02T10:19:18.610Z,2020.00
2022-08-02T10:20:18.594Z,2084.00
2022-08-02T10:21:17.570Z,2168.00
2022-08-02T10:22:19.750Z,2364.00
2022-08-02T10:23:17.581Z,3188.00
2022-08-02T10:24:17.551Z,3456.00
2022-08-02T10:25:17.531Z,2956.00
2022-08-02T10:26:17.532Z,3108.00
2022-08-02T10:27:17.513Z,3392.00
2022-08-02T10:28:17.578Z,3916.00
2022-08-02T10:29:17.515Z,4228.00
2022-08-02T10:30:17.483Z,4084.00
2022-08-02T10:31:17.471Z,3544.00
2022-08-02T10:32:17.484Z,3556.00
2022-08-02T10:33:17.444Z,3396.00
2022-08-02T10:34:17.474Z,3016.00
2022-08-02T10:35:20.073Z,2916.00
2022-08-02T10:36:18.418Z,3076.00
2022-08-02T10:37:17.438Z,3964.00
2022-08-02T10:38:17.406Z,5028.00
2022-08-02T10:39:17.396Z,5264.00
2022-08-02T10:40:17.372Z,5140.00
2022-08-02T10:41:17.385Z,4808.00
2022-08-02T10:42:17.347Z,4680.00
2022-08-02T10:43:17.368Z,4300.00
2022-08-02T10:44:24.783Z,3672.00
2022-08-02T10:45:18.326Z,3564.00
2022-08-02T10:46:17.354Z,3484.00
2022-08-02T10:47:17.319Z,2896.00
2022-08-02T10:48:17.318Z,3424.00
2022-08-02T10:49:39.164Z,3800.00
2022-08-02T10:50:18.295Z,4084.00
2022-08-02T10:51:17.262Z,4196.00
2022-08-02T10:52:18.272Z,3912.00
2022-08-02T10:53:17.232Z,3856.00
2022-08-02T10:54:17.223Z,3328.00
2022-08-02T10:55:22.377Z,3008.00
2022-08-02T10:56:18.205Z,2796.00
2022-08-02T10:57:17.193Z,3344.00
2022-08-02T10:58:17.193Z,4064.00
2022-08-02T10:59:17.211Z,3988.00
2022-08-02T11:00:17.337Z,3716.00
2022-08-02T11:01:17.218Z,3732.00
2022-08-02T11:02:17.510Z,3624.00
2022-08-02T11:03:17.186Z,3052.00
2022-08-02T11:04:17.113Z,3056.00
2022-08-02T11:05:17.096Z,3284.00
2022-08-02T11:06:25.674Z,3884.00
2022-08-02T11:07:18.091Z,4772.00
2022-08-02T11:08:17.069Z,5068.00
2022-08-02T11:09:17.106Z,5096.00
2022-08-02T11:10:17.059Z,4868.00
2022-08-02T11:11:17.036Z,4796.00
2022-08-02T11:12:17.044Z,4880.00
2022-08-02T11:13:18.982Z,4664.00
2022-08-02T11:14:17.017Z,5380.00
2022-08-02T11:15:17.041Z,5768.00
2022-08-02T11:16:16.991Z,4932.00
2022-08-02T11:17:16.968Z,5616.00
2022-08-02T11:18:16.965Z,5504.00
2022-08-02T11:19:16.982Z,5700.00
2022-08-02T11:20:16.959Z,5520.00
2022-08-02T11:21:16.927Z,5724.00
2022-08-02T11:22:16.933Z,5944.00
2022-08-02T11:23:17.871Z,6148.00
2022-08-02T11:24:16.898Z,6344.00
2022-08-02T11:25:16.915Z,6492.00
2022-08-02T11:26:16.874Z,5436.00
2022-08-02T11:27:16.876Z,4064.00
2022-08-02T11:28:20.719Z,6624.00
2022-08-02T11:29:17.866Z,6544.00
2022-08-02T11:30:16.849Z,6272.00
2022-08-02T11:31:16.859Z,6120.00
2022-08-02T11:32:16.820Z,6116.00
2022-08-02T11:33:17.749Z,6044.00
2022-08-02T11:34:37.382Z,5900.00
2022-08-02T11:35:17.779Z,5748.00
2022-08-02T11:36:16.780Z,5976.00
2022-08-02T11:37:16.780Z,5744.00
2022-08-02T11:38:16.771Z,5524.00
2022-08-02T11:39:16.761Z,5468.00
2022-08-02T11:40:19.810Z,5776.00
2022-08-02T11:41:16.734Z,6124.00
2022-08-02T11:42:17.715Z,5860.00
2022-08-02T11:43:17.663Z,6392.00
2022-08-02T11:44:16.691Z,6928.00
2022-08-02T11:45:21.439Z,6976.00
2022-08-02T11:46:17.664Z,7016.00
2022-08-02T11:47:16.654Z,7460.00
2022-08-02T11:48:16.646Z,7924.00
2022-08-02T11:49:16.873Z,8096.00
2022-08-02T11:50:16.639Z,7752.00
2022-08-02T11:51:16.617Z,7812.00
2022-08-02T11:52:16.733Z,7984.00
2022-08-02T11:53:16.583Z,8212.00
2022-08-02T11:54:16.576Z,8404.00
2022-08-02T11:55:16.593Z,8408.00
2022-08-02T11:56:21.744Z,8268.00
2022-08-02T11:57:20.059Z,8140.00
2022-08-02T11:58:16.541Z,8076.00
2022-08-02T11:59:16.521Z,8176.00
2022-08-02T12:00:16.549Z,8268.00
2022-08-02T12:01:16.512Z,8312.00
2022-08-02T12:02:16.524Z,8468.00
2022-08-02T12:03:19.762Z,8512.00
2022-08-02T12:04:16.491Z,8540.00
2022-08-02T12:05:16.491Z,8552.00
2022-08-02T12:06:16.979Z,8568.00
2022-08-02T12:07:16.446Z,8480.00
2022-08-02T12:08:19.280Z,8292.00
2022-08-02T12:09:18.923Z,8004.00
2022-08-02T12:10:18.635Z,7748.00
2022-08-02T12:11:16.397Z,7540.00
2022-08-02T12:12:16.389Z,7392.00
2022-08-02T12:13:16.384Z,7236.00
2022-08-02T12:14:16.369Z,7208.00
2022-08-02T12:15:16.397Z,7136.00
2022-08-02T12:16:16.344Z,6864.00
2022-08-02T12:17:16.363Z,6700.00
2022-08-02T12:18:16.317Z,6548.00
2022-08-02T12:19:16.307Z,6332.00
2022-08-02T12:20:16.311Z,6720.00
2022-08-02T12:21:16.314Z,7480.00
2022-08-02T12:22:16.664Z,7272.00
2022-08-02T12:23:16.279Z,7260.00
2022-08-02T12:24:16.288Z,6656.00
2022-08-02T12:25:16.281Z,6000.00
2022-08-02T12:26:18.201Z,7056.00
2022-08-02T12:27:16.230Z,6940.00
2022-08-02T12:28:17.906Z,7360.00
2022-08-02T12:29:16.244Z,7280.00
2022-08-02T12:30:17.253Z,7604.00
2022-08-02T12:31:17.196Z,7712.00
2022-08-02T12:32:16.205Z,7652.00
2022-08-02T12:33:16.174Z,7540.00